EDV4893 KORF-KLGA
Flight info
| Callsign | EDV4893 |
|---|---|
| Flight time | 1h 1m |
| Altitude | 31000 |
| Route | NUTIY1 HYTRA PROUD2 |
| Aircraft | CRJ9/M-SDFGIRWY/S |
Departure
| Time | 2026-04-24 21:04 |
|---|---|
| Airport | Norfolk International Airport (KORF) |
Arrival
| Time | 2026-04-24 22:06 |
|---|---|
| Airport | LaGuardia Airport (KLGA) |
| Time | Latitude | Longitude | Altitude | Speed | Heading |
|---|---|---|---|---|---|
| 2026-04-24 20:39 | 36.89736 | -76.20224 | 1 ft | 0 kts | 219° |
| 2026-04-24 20:56 | 36.89748 | -76.20213 | 1 ft | 4 kts | 216° |
| 2026-04-24 20:57 | 36.89771 | -76.20197 | 1 ft | 4 kts | 202° |
| 2026-04-24 20:57 | 36.89796 | -76.20191 | 1 ft | 4 kts | 170° |
| 2026-04-24 20:57 | 36.89811 | -76.20204 | 1 ft | 2 kts | 113° |
| 2026-04-24 20:57 | 36.89811 | -76.20206 | 1 ft | 4 kts | 113° |
| 2026-04-24 20:59 | 36.89811 | -76.20205 | 1 ft | 1 kts | 113° |
| 2026-04-24 21:00 | 36.89799 | -76.20170 | 9 ft | 8 kts | 113° |
| 2026-04-24 21:00 | 36.89770 | -76.20082 | 1 ft | 14 kts | 111° |
| 2026-04-24 21:00 | 36.89726 | -76.19989 | 2 ft | 11 kts | 156° |
| 2026-04-24 21:00 | 36.89647 | -76.20023 | 2 ft | 16 kts | 217° |
| 2026-04-24 21:01 | 36.89556 | -76.20109 | 2 ft | 17 kts | 217° |
| 2026-04-24 21:01 | 36.89463 | -76.20195 | 2 ft | 17 kts | 216° |
| 2026-04-24 21:01 | 36.89371 | -76.20287 | 2 ft | 17 kts | 222° |
| 2026-04-24 21:01 | 36.89277 | -76.20380 | 3 ft | 17 kts | 217° |
| 2026-04-24 21:02 | 36.89186 | -76.20463 | 5 ft | 16 kts | 213° |
| 2026-04-24 21:02 | 36.89083 | -76.20542 | 2 ft | 19 kts | 211° |
| 2026-04-24 21:02 | 36.88956 | -76.20644 | 2 ft | 22 kts | 217° |
| 2026-04-24 21:02 | 36.88833 | -76.20764 | 2 ft | 22 kts | 218° |
| 2026-04-24 21:03 | 36.88719 | -76.20874 | 1 ft | 15 kts | 217° |
| 2026-04-24 21:03 | 36.88629 | -76.20874 | 0 ft | 14 kts | 124° |
| 2026-04-24 21:03 | 36.88650 | -76.20770 | 0 ft | 13 kts | 39° |
| 2026-04-24 21:03 | 36.88818 | -76.20606 | 2 ft | 63 kts | 37° |
| 2026-04-24 21:04 | 36.89363 | -76.20090 | 7 ft | 134 kts | 40° |
| 2026-04-24 21:04 | 36.90220 | -76.19210 | 234 ft | 172 kts | 41° |
| 2026-04-24 21:04 | 36.91137 | -76.18199 | 1037 ft | 183 kts | 40° |
| 2026-04-24 21:04 | 36.92246 | -76.17348 | 1899 ft | 192 kts | 13° |
| 2026-04-24 21:05 | 36.93569 | -76.17535 | 2832 ft | 199 kts | 333° |
| 2026-04-24 21:05 | 36.94614 | -76.18647 | 3654 ft | 199 kts | 308° |
| 2026-04-24 21:05 | 36.95502 | -76.20061 | 4292 ft | 217 kts | 308° |
| 2026-04-24 21:05 | 36.96376 | -76.21684 | 4883 ft | 235 kts | 287° |
| 2026-04-24 21:06 | 36.96341 | -76.23731 | 5497 ft | 251 kts | 250° |
| 2026-04-24 21:06 | 36.95710 | -76.25757 | 6504 ft | 249 kts | 253° |
| 2026-04-24 21:06 | 36.95252 | -76.27859 | 7468 ft | 252 kts | 259° |
| 2026-04-24 21:06 | 36.94943 | -76.30030 | 8414 ft | 255 kts | 263° |
| 2026-04-24 21:07 | 36.94755 | -76.32244 | 9391 ft | 258 kts | 267° |
| 2026-04-24 21:07 | 36.94643 | -76.34493 | 10291 ft | 261 kts | 269° |
| 2026-04-24 21:07 | 36.94582 | -76.36776 | 11111 ft | 265 kts | 270° |
| 2026-04-24 21:07 | 36.94565 | -76.39090 | 11918 ft | 269 kts | 271° |
| 2026-04-24 21:08 | 36.94562 | -76.41442 | 12752 ft | 272 kts | 271° |
| 2026-04-24 21:08 | 36.94555 | -76.43826 | 13581 ft | 276 kts | 271° |
| 2026-04-24 21:08 | 36.94543 | -76.46238 | 14325 ft | 280 kts | 271° |
| 2026-04-24 21:08 | 36.94532 | -76.48690 | 15049 ft | 284 kts | 271° |
| 2026-04-24 21:09 | 36.94518 | -76.51163 | 15783 ft | 286 kts | 271° |
| 2026-04-24 21:09 | 36.94560 | -76.53662 | 16457 ft | 289 kts | 281° |
| 2026-04-24 21:09 | 36.95311 | -76.55995 | 17087 ft | 292 kts | 300° |
| 2026-04-24 21:09 | 36.96454 | -76.58112 | 17773 ft | 296 kts | 307° |
| 2026-04-24 21:10 | 36.97779 | -76.60106 | 18422 ft | 300 kts | 310° |
| 2026-04-24 21:10 | 36.99167 | -76.62070 | 19063 ft | 302 kts | 311° |
| 2026-04-24 21:10 | 37.00569 | -76.64042 | 19686 ft | 304 kts | 311° |
| 2026-04-24 21:10 | 37.01961 | -76.66047 | 20328 ft | 306 kts | 310° |
| 2026-04-24 21:11 | 37.03337 | -76.68089 | 20951 ft | 309 kts | 309° |
| 2026-04-24 21:11 | 37.04722 | -76.70160 | 21558 ft | 311 kts | 309° |
| 2026-04-24 21:11 | 37.06113 | -76.72246 | 22174 ft | 314 kts | 309° |
| 2026-04-24 21:11 | 37.07515 | -76.74350 | 22774 ft | 316 kts | 309° |
| 2026-04-24 21:12 | 37.08929 | -76.76474 | 23376 ft | 319 kts | 309° |
| 2026-04-24 21:12 | 37.10353 | -76.78613 | 23889 ft | 321 kts | 309° |
| 2026-04-24 21:12 | 37.11789 | -76.80774 | 24366 ft | 324 kts | 309° |
| 2026-04-24 21:12 | 37.13236 | -76.82953 | 24858 ft | 326 kts | 310° |
| 2026-04-24 21:13 | 37.14697 | -76.85153 | 25336 ft | 329 kts | 310° |
| 2026-04-24 21:13 | 37.16168 | -76.87370 | 25806 ft | 332 kts | 310° |
| 2026-04-24 21:13 | 37.17649 | -76.89604 | 26267 ft | 335 kts | 310° |
| 2026-04-24 21:13 | 37.19143 | -76.91861 | 26728 ft | 337 kts | 310° |
| 2026-04-24 21:14 | 37.20644 | -76.94128 | 27233 ft | 338 kts | 310° |
| 2026-04-24 21:14 | 37.22137 | -76.96408 | 27753 ft | 339 kts | 310° |
| 2026-04-24 21:14 | 37.23638 | -76.98695 | 28196 ft | 341 kts | 310° |
| 2026-04-24 21:14 | 37.25172 | -77.01012 | 28412 ft | 351 kts | 310° |
| 2026-04-24 21:15 | 37.26765 | -77.03401 | 28476 ft | 363 kts | 310° |
| 2026-04-24 21:15 | 37.28466 | -77.05811 | 28557 ft | 375 kts | 319° |
| 2026-04-24 21:15 | 37.30712 | -77.07493 | 28823 ft | 381 kts | 340° |
| 2026-04-24 21:15 | 37.33257 | -77.08227 | 29444 ft | 379 kts | 349° |
| 2026-04-24 21:16 | 37.35824 | -77.08633 | 30210 ft | 369 kts | 352° |
| 2026-04-24 21:16 | 37.38397 | -77.08915 | 30548 ft | 373 kts | 353° |
| 2026-04-24 21:16 | 37.41009 | -77.09123 | 30702 ft | 379 kts | 354° |
| 2026-04-24 21:16 | 37.43663 | -77.09146 | 30771 ft | 387 kts | 5° |
| 2026-04-24 21:17 | 37.46277 | -77.08186 | 30834 ft | 399 kts | 20° |
| 2026-04-24 21:17 | 37.48830 | -77.06696 | 30854 ft | 409 kts | 21° |
| 2026-04-24 21:17 | 37.53960 | -77.03846 | 30856 ft | 395 kts | 17° |
| 2026-04-24 21:18 | 37.59062 | -77.01593 | 30841 ft | 382 kts | 15° |
| 2026-04-24 21:18 | 37.64019 | -76.99429 | 30831 ft | 371 kts | 15° |
| 2026-04-24 21:19 | 37.68812 | -76.97257 | 30831 ft | 364 kts | 16° |
| 2026-04-24 21:19 | 37.73653 | -76.95064 | 30852 ft | 375 kts | 15° |
| 2026-04-24 21:20 | 37.78653 | -76.92803 | 30875 ft | 388 kts | 15° |
| 2026-04-24 21:20 | 37.81206 | -76.91646 | 30869 ft | 389 kts | 15° |
| 2026-04-24 21:21 | 37.86270 | -76.89346 | 30859 ft | 385 kts | 15° |
| 2026-04-24 21:21 | 37.91282 | -76.87066 | 30848 ft | 381 kts | 15° |
| 2026-04-24 21:22 | 37.96146 | -76.84493 | 30855 ft | 382 kts | 28° |
| 2026-04-24 21:22 | 38.00265 | -76.80211 | 30849 ft | 384 kts | 38° |
| 2026-04-24 21:23 | 38.03938 | -76.75364 | 30843 ft | 383 kts | 43° |
| 2026-04-24 21:23 | 38.07527 | -76.70402 | 30838 ft | 381 kts | 41° |
| 2026-04-24 21:24 | 38.11193 | -76.65545 | 30842 ft | 381 kts | 41° |
| 2026-04-24 21:24 | 38.14838 | -76.60663 | 30849 ft | 382 kts | 41° |
| 2026-04-24 21:25 | 38.18517 | -76.55719 | 30850 ft | 388 kts | 41° |
| 2026-04-24 21:25 | 38.22263 | -76.50687 | 30860 ft | 395 kts | 41° |
| 2026-04-24 21:26 | 38.26069 | -76.45571 | 30875 ft | 402 kts | 41° |
| 2026-04-24 21:26 | 38.29995 | -76.40495 | 30868 ft | 397 kts | 36° |
| 2026-04-24 21:27 | 38.34300 | -76.36298 | 30854 ft | 385 kts | 30° |
| 2026-04-24 21:27 | 38.38582 | -76.32311 | 30844 ft | 378 kts | 32° |
| 2026-04-24 21:28 | 38.42704 | -76.28263 | 30840 ft | 369 kts | 32° |
| 2026-04-24 21:28 | 38.46701 | -76.24272 | 30832 ft | 360 kts | 32° |
| 2026-04-24 21:29 | 38.50627 | -76.20422 | 30832 ft | 351 kts | 31° |
| 2026-04-24 21:29 | 38.54487 | -76.16631 | 30843 ft | 352 kts | 31° |
| 2026-04-24 21:30 | 38.58393 | -76.12792 | 30855 ft | 360 kts | 31° |
| 2026-04-24 21:30 | 38.62458 | -76.08789 | 30872 ft | 374 kts | 31° |
| 2026-04-24 21:31 | 38.66732 | -76.04770 | 30575 ft | 384 kts | 30° |
| 2026-04-24 21:31 | 38.68831 | -76.02808 | 30297 ft | 374 kts | 30° |
| 2026-04-24 21:31 | 38.70940 | -76.00835 | 29959 ft | 367 kts | 30° |
| 2026-04-24 21:31 | 38.72961 | -75.98945 | 29577 ft | 362 kts | 30° |
| 2026-04-24 21:32 | 38.74984 | -75.97073 | 29185 ft | 357 kts | 30° |
| 2026-04-24 21:32 | 38.76976 | -75.95214 | 28798 ft | 352 kts | 30° |
| 2026-04-24 21:32 | 38.78942 | -75.93369 | 28416 ft | 348 kts | 30° |
| 2026-04-24 21:32 | 38.80890 | -75.91543 | 28037 ft | 345 kts | 30° |
| 2026-04-24 21:33 | 38.82818 | -75.89735 | 27666 ft | 342 kts | 30° |
| 2026-04-24 21:33 | 38.84115 | -75.88519 | 27413 ft | 344 kts | 30° |
| 2026-04-24 21:33 | 38.86707 | -75.86088 | 27068 ft | 351 kts | 30° |
| 2026-04-24 21:33 | 38.88671 | -75.84241 | 26969 ft | 348 kts | 30° |
| 2026-04-24 21:34 | 38.90611 | -75.82415 | 26916 ft | 344 kts | 30° |
| 2026-04-24 21:34 | 38.92526 | -75.80612 | 26884 ft | 339 kts | 30° |
| 2026-04-24 21:34 | 38.94414 | -75.78827 | 26839 ft | 335 kts | 30° |
| 2026-04-24 21:34 | 38.96320 | -75.77037 | 26370 ft | 344 kts | 30° |
| 2026-04-24 21:35 | 38.98276 | -75.75200 | 25925 ft | 351 kts | 30° |
| 2026-04-24 21:35 | 39.00251 | -75.73354 | 25513 ft | 354 kts | 30° |
| 2026-04-24 21:35 | 39.02256 | -75.71474 | 25168 ft | 356 kts | 30° |
| 2026-04-24 21:35 | 39.04242 | -75.69598 | 25005 ft | 351 kts | 30° |
| 2026-04-24 21:36 | 39.06187 | -75.67747 | 24921 ft | 345 kts | 30° |
| 2026-04-24 21:36 | 39.08093 | -75.65928 | 24874 ft | 337 kts | 30° |
| 2026-04-24 21:36 | 39.09959 | -75.64150 | 24859 ft | 331 kts | 29° |
| 2026-04-24 21:36 | 39.11808 | -75.62399 | 24854 ft | 329 kts | 29° |
| 2026-04-24 21:37 | 39.13644 | -75.60663 | 24857 ft | 327 kts | 29° |
| 2026-04-24 21:37 | 39.15468 | -75.58934 | 24848 ft | 324 kts | 29° |
| 2026-04-24 21:37 | 39.17276 | -75.57212 | 24849 ft | 321 kts | 29° |
| 2026-04-24 21:37 | 39.19065 | -75.55506 | 24856 ft | 319 kts | 29° |
| 2026-04-24 21:38 | 39.20842 | -75.53812 | 24866 ft | 316 kts | 29° |
| 2026-04-24 21:38 | 39.22630 | -75.52114 | 24871 ft | 322 kts | 29° |
| 2026-04-24 21:38 | 39.24458 | -75.50413 | 24867 ft | 327 kts | 27° |
| 2026-04-24 21:38 | 39.26344 | -75.48740 | 24868 ft | 331 kts | 27° |
| 2026-04-24 21:39 | 39.28266 | -75.47050 | 24870 ft | 337 kts | 27° |
| 2026-04-24 21:39 | 39.30240 | -75.45312 | 24590 ft | 353 kts | 27° |
| 2026-04-24 21:39 | 39.32293 | -75.43521 | 24271 ft | 353 kts | 27° |
| 2026-04-24 21:39 | 39.34269 | -75.41775 | 23940 ft | 349 kts | 28° |
| 2026-04-24 21:40 | 39.36306 | -75.39965 | 23597 ft | 350 kts | 28° |
| 2026-04-24 21:40 | 39.38308 | -75.38182 | 23233 ft | 349 kts | 28° |
| 2026-04-24 21:40 | 39.40303 | -75.36404 | 22845 ft | 347 kts | 28° |
| 2026-04-24 21:40 | 39.42284 | -75.34638 | 22445 ft | 345 kts | 28° |
| 2026-04-24 21:41 | 39.43581 | -75.33483 | 22191 ft | 344 kts | 28° |
| 2026-04-24 21:41 | 39.45545 | -75.31732 | 21800 ft | 338 kts | 28° |
| 2026-04-24 21:41 | 39.48111 | -75.29440 | 21286 ft | 331 kts | 28° |
| 2026-04-24 21:41 | 39.49996 | -75.27756 | 20910 ft | 327 kts | 28° |
| 2026-04-24 21:42 | 39.51229 | -75.26654 | 20662 ft | 324 kts | 28° |
| 2026-04-24 21:42 | 39.53057 | -75.24972 | 20305 ft | 321 kts | 29° |
| 2026-04-24 21:42 | 39.54856 | -75.23284 | 19929 ft | 318 kts | 29° |
| 2026-04-24 21:42 | 39.56639 | -75.21615 | 19564 ft | 315 kts | 29° |
| 2026-04-24 21:43 | 39.58406 | -75.19960 | 19205 ft | 312 kts | 29° |
| 2026-04-24 21:43 | 39.60157 | -75.18318 | 18847 ft | 310 kts | 29° |
| 2026-04-24 21:43 | 39.61908 | -75.16676 | 18501 ft | 312 kts | 30° |
| 2026-04-24 21:43 | 39.63679 | -75.15015 | 18156 ft | 316 kts | 30° |
| 2026-04-24 21:44 | 39.65469 | -75.13326 | 17776 ft | 320 kts | 30° |
| 2026-04-24 21:44 | 39.67280 | -75.11624 | 17398 ft | 323 kts | 29° |
| 2026-04-24 21:44 | 39.69127 | -75.09942 | 17016 ft | 324 kts | 28° |
| 2026-04-24 21:44 | 39.70953 | -75.08338 | 16635 ft | 312 kts | 27° |
| 2026-04-24 21:45 | 39.72718 | -75.06819 | 16256 ft | 305 kts | 27° |
| 2026-04-24 21:45 | 39.74471 | -75.05310 | 15879 ft | 300 kts | 26° |
| 2026-04-24 21:45 | 39.76195 | -75.03840 | 15497 ft | 294 kts | 26° |
| 2026-04-24 21:45 | 39.77889 | -75.02383 | 15127 ft | 290 kts | 26° |
| 2026-04-24 21:46 | 39.79556 | -75.00944 | 14765 ft | 285 kts | 26° |
| 2026-04-24 21:46 | 39.81196 | -74.99529 | 14419 ft | 281 kts | 26° |
| 2026-04-24 21:46 | 39.82816 | -74.98131 | 14063 ft | 277 kts | 26° |
| 2026-04-24 21:46 | 39.84410 | -74.96754 | 13713 ft | 274 kts | 26° |
| 2026-04-24 21:47 | 39.85986 | -74.95382 | 13339 ft | 270 kts | 26° |
| 2026-04-24 21:47 | 39.87518 | -74.94033 | 13127 ft | 260 kts | 26° |
| 2026-04-24 21:47 | 39.88971 | -74.92723 | 13023 ft | 250 kts | 26° |
| 2026-04-24 21:47 | 39.90427 | -74.91411 | 13001 ft | 259 kts | 27° |
| 2026-04-24 21:48 | 39.91920 | -74.90061 | 12996 ft | 264 kts | 28° |
| 2026-04-24 21:48 | 39.93335 | -74.88447 | 13001 ft | 277 kts | 38° |
| 2026-04-24 21:48 | 39.94646 | -74.86551 | 13008 ft | 286 kts | 41° |
| 2026-04-24 21:48 | 39.95981 | -74.84522 | 12666 ft | 299 kts | 42° |
| 2026-04-24 21:49 | 39.97336 | -74.82492 | 12304 ft | 296 kts | 41° |
| 2026-04-24 21:49 | 39.98697 | -74.80486 | 11940 ft | 295 kts | 40° |
| 2026-04-24 21:49 | 40.00064 | -74.78505 | 11573 ft | 293 kts | 40° |
| 2026-04-24 21:49 | 40.01426 | -74.76542 | 11255 ft | 290 kts | 40° |
| 2026-04-24 21:50 | 40.02764 | -74.74622 | 11098 ft | 282 kts | 39° |
| 2026-04-24 21:50 | 40.04076 | -74.72747 | 11029 ft | 277 kts | 39° |
| 2026-04-24 21:50 | 40.05361 | -74.70907 | 10995 ft | 271 kts | 39° |
| 2026-04-24 21:50 | 40.06627 | -74.69094 | 10982 ft | 272 kts | 39° |
| 2026-04-24 21:51 | 40.07907 | -74.67264 | 10724 ft | 283 kts | 39° |
| 2026-04-24 21:51 | 40.09275 | -74.65321 | 10443 ft | 286 kts | 39° |
| 2026-04-24 21:51 | 40.10582 | -74.63456 | 10307 ft | 278 kts | 39° |
| 2026-04-24 21:51 | 40.11853 | -74.61624 | 10217 ft | 269 kts | 39° |
| 2026-04-24 21:52 | 40.13087 | -74.59838 | 10148 ft | 259 kts | 39° |
| 2026-04-24 21:52 | 40.14257 | -74.58124 | 10145 ft | 247 kts | 39° |
| 2026-04-24 21:52 | 40.15421 | -74.56443 | 9797 ft | 254 kts | 39° |
| 2026-04-24 21:52 | 40.16637 | -74.54704 | 9416 ft | 264 kts | 39° |
| 2026-04-24 21:53 | 40.17902 | -74.52924 | 9053 ft | 271 kts | 39° |
| 2026-04-24 21:53 | 40.19197 | -74.51097 | 8695 ft | 277 kts | 40° |
| 2026-04-24 21:53 | 40.20517 | -74.49275 | 8354 ft | 274 kts | 39° |
| 2026-04-24 21:53 | 40.21838 | -74.47510 | 8101 ft | 268 kts | 38° |
| 2026-04-24 21:54 | 40.23151 | -74.45809 | 7856 ft | 263 kts | 37° |
| 2026-04-24 21:54 | 40.24457 | -74.44162 | 7615 ft | 259 kts | 37° |
| 2026-04-24 21:54 | 40.25748 | -74.42535 | 7378 ft | 255 kts | 37° |
| 2026-04-24 21:54 | 40.27018 | -74.40929 | 7129 ft | 252 kts | 37° |
| 2026-04-24 21:55 | 40.28274 | -74.39347 | 6893 ft | 249 kts | 37° |
| 2026-04-24 21:55 | 40.29511 | -74.37782 | 6649 ft | 246 kts | 38° |
| 2026-04-24 21:55 | 40.30734 | -74.36234 | 6406 ft | 243 kts | 38° |
| 2026-04-24 21:55 | 40.31941 | -74.34704 | 6156 ft | 240 kts | 38° |
| 2026-04-24 21:56 | 40.33134 | -74.33197 | 5901 ft | 237 kts | 38° |
| 2026-04-24 21:56 | 40.34340 | -74.31677 | 5670 ft | 252 kts | 38° |
| 2026-04-24 21:56 | 40.35672 | -74.30038 | 5466 ft | 268 kts | 38° |
| 2026-04-24 21:56 | 40.37034 | -74.28364 | 5273 ft | 268 kts | 39° |
| 2026-04-24 21:57 | 40.38383 | -74.26677 | 5056 ft | 268 kts | 39° |
| 2026-04-24 21:57 | 40.39711 | -74.24988 | 4831 ft | 268 kts | 40° |
| 2026-04-24 21:57 | 40.41050 | -74.23282 | 4618 ft | 268 kts | 40° |
| 2026-04-24 21:57 | 40.42386 | -74.21568 | 4375 ft | 268 kts | 41° |
| 2026-04-24 21:58 | 40.43720 | -74.19873 | 4147 ft | 266 kts | 41° |
| 2026-04-24 21:58 | 40.45041 | -74.18194 | 3890 ft | 262 kts | 41° |
| 2026-04-24 21:58 | 40.46341 | -74.16537 | 3629 ft | 259 kts | 41° |
| 2026-04-24 21:58 | 40.47623 | -74.14903 | 3377 ft | 255 kts | 41° |
| 2026-04-24 21:59 | 40.48859 | -74.13313 | 3172 ft | 250 kts | 42° |
| 2026-04-24 21:59 | 40.50079 | -74.11744 | 3065 ft | 241 kts | 41° |
| 2026-04-24 21:59 | 40.51245 | -74.10239 | 3016 ft | 229 kts | 42° |
| 2026-04-24 21:59 | 40.52391 | -74.08878 | 2979 ft | 215 kts | 34° |
| 2026-04-24 22:00 | 40.53599 | -74.07783 | 2970 ft | 210 kts | 28° |
| 2026-04-24 22:00 | 40.54851 | -74.06775 | 2996 ft | 210 kts | 29° |
| 2026-04-24 22:00 | 40.56097 | -74.05782 | 2999 ft | 208 kts | 28° |
| 2026-04-24 22:00 | 40.57307 | -74.04799 | 3010 ft | 207 kts | 31° |
| 2026-04-24 22:01 | 40.58512 | -74.03739 | 3008 ft | 205 kts | 32° |
| 2026-04-24 22:01 | 40.59691 | -74.02704 | 2998 ft | 203 kts | 32° |
| 2026-04-24 22:01 | 40.60845 | -74.01703 | 3002 ft | 200 kts | 31° |
| 2026-04-24 22:01 | 40.62007 | -74.00715 | 3012 ft | 198 kts | 30° |
| 2026-04-24 22:02 | 40.63167 | -73.99748 | 3020 ft | 197 kts | 31° |
| 2026-04-24 22:02 | 40.64369 | -73.98762 | 2712 ft | 207 kts | 31° |
| 2026-04-24 22:02 | 40.65598 | -73.97762 | 2379 ft | 208 kts | 31° |
| 2026-04-24 22:02 | 40.66823 | -73.96755 | 2064 ft | 205 kts | 32° |
| 2026-04-24 22:03 | 40.67998 | -73.95779 | 1925 ft | 194 kts | 32° |
| 2026-04-24 22:03 | 40.69097 | -73.94872 | 1851 ft | 179 kts | 32° |
| 2026-04-24 22:03 | 40.70106 | -73.94039 | 1741 ft | 166 kts | 32° |
| 2026-04-24 22:03 | 40.71064 | -73.93249 | 1507 ft | 157 kts | 32° |
| 2026-04-24 22:04 | 40.71948 | -73.92521 | 1321 ft | 143 kts | 32° |
| 2026-04-24 22:04 | 40.72769 | -73.91884 | 1055 ft | 130 kts | 25° |
| 2026-04-24 22:04 | 40.73575 | -73.91323 | 737 ft | 137 kts | 35° |
| 2026-04-24 22:04 | 40.74411 | -73.90548 | 672 ft | 152 kts | 37° |
| 2026-04-24 22:05 | 40.75259 | -73.89783 | 444 ft | 146 kts | 33° |
| 2026-04-24 22:05 | 40.76138 | -73.89080 | 257 ft | 147 kts | 37° |
| 2026-04-24 22:05 | 40.76988 | -73.88365 | 50 ft | 141 kts | 35° |
| 2026-04-24 22:05 | 40.77642 | -73.87817 | 24 ft | 99 kts | 31° |
| 2026-04-24 22:06 | 40.78099 | -73.87436 | 12 ft | 60 kts | 33° |
| 2026-04-24 22:06 | 40.78252 | -73.87286 | 15 ft | 6 kts | 90° |
| 2026-04-24 22:06 | 40.78241 | -73.87264 | 15 ft | 5 kts | 139° |
| 2026-04-24 22:06 | 40.78210 | -73.87223 | 16 ft | 5 kts | 152° |
| 2026-04-24 22:07 | 40.78184 | -73.87224 | 17 ft | 4 kts | 200° |
| 2026-04-24 22:07 | 40.78161 | -73.87242 | 16 ft | 4 kts | 205° |
| 2026-04-24 22:07 | 40.78115 | -73.87274 | 16 ft | 11 kts | 211° |
| 2026-04-24 22:07 | 40.78027 | -73.87347 | 12 ft | 18 kts | 212° |
| 2026-04-24 22:08 | 40.77930 | -73.87427 | 13 ft | 12 kts | 212° |
| 2026-04-24 22:08 | 40.77864 | -73.87459 | 13 ft | 10 kts | 158° |
| 2026-04-24 22:08 | 40.77806 | -73.87404 | 12 ft | 11 kts | 163° |
| 2026-04-24 22:08 | 40.77774 | -73.87351 | 13 ft | 8 kts | 92° |
| 2026-04-24 22:09 | 40.77764 | -73.87252 | 13 ft | 13 kts | 112° |
| 2026-04-24 22:09 | 40.77709 | -73.87134 | 13 ft | 17 kts | 124° |
| 2026-04-24 22:09 | 40.77642 | -73.87008 | 13 ft | 17 kts | 126° |
| 2026-04-24 22:09 | 40.77581 | -73.86868 | 12 ft | 18 kts | 122° |
| 2026-04-24 22:10 | 40.77517 | -73.86747 | 11 ft | 16 kts | 127° |
| 2026-04-24 22:10 | 40.77456 | -73.86636 | 10 ft | 10 kts | 116° |
| 2026-04-24 22:10 | 40.77422 | -73.86559 | 11 ft | 4 kts | 125° |
| 2026-04-24 22:10 | 40.77413 | -73.86550 | 11 ft | 0 kts | 160° |
| 2026-04-24 22:11 | 40.77399 | -73.86548 | 13 ft | 0 kts | 186° |
| 2026-04-24 22:11 | 40.77394 | -73.86550 | 13 ft | 2 kts | 198° |
| 2026-04-24 22:11 | 40.77375 | -73.86568 | 17 ft | 5 kts | 223° |
| 2026-04-24 22:11 | 40.77337 | -73.86605 | 18 ft | 7 kts | 199° |
| 2026-04-24 22:12 | 40.77312 | -73.86591 | 18 ft | 3 kts | 131° |
| 2026-04-24 22:12 | 40.77296 | -73.86569 | 18 ft | 2 kts | 134° |
| 2026-04-24 22:12 | 40.77294 | -73.86567 | 18 ft | 0 kts | 134° |